City of London, United Kingdom
Current Conditions -  °F | °C
As of 2:20 PM on Friday 31 Oct 2014 (Local Time) from EGLC Reporting Station
Clear Clear  
Wind Chill: 73°   Ceiling: Unl
Heat Index: 73°   Visibility: 6mi
Dew Point: 54°   Wind: 6mph
Humidity: 50%   Direction: 170°S
Pressure: 30"   Gusts: NA
Location:  51.51°N, 0.09°W
Report Text: EGLC 311420Z 17005KT 150V210 CAVOK 23/12 Q1016
Loading
Personal Weather Stations






























Interactive Weather Map New forecast layout! Learn more

10-Day Weather Forecast

Advertisements
Track Severe Weather on mobile